sensor_id;sensor_type;location;lat;lon;timestamp;pressure;altitude;pressure_sealevel;temperature
78905;BMP280;68291;49.602;8.722;2023-03-23T00:02:40;98821.50;;;18.14
78905;BMP280;68291;49.602;8.722;2023-03-23T00:05:11;98800.94;;;18.11
78905;BMP280;68291;49.602;8.722;2023-03-23T00:07:55;98808.75;;;18.11
78905;BMP280;68291;49.602;8.722;2023-03-23T00:10:36;98803.13;;;18.16
78905;BMP280;68291;49.602;8.722;2023-03-23T00:13:25;98826.06;;;18.21
78905;BMP280;68291;49.602;8.722;2023-03-23T00:15:58;98807.81;;;18.21
78905;BMP280;68291;49.602;8.722;2023-03-23T00:18:44;98810.44;;;18.21
78905;BMP280;68291;49.602;8.722;2023-03-23T00:21:25;98803.84;;;18.17
78905;BMP280;68291;49.602;8.722;2023-03-23T00:24:05;98800.81;;;18.22
78905;BMP280;68291;49.602;8.722;2023-03-23T00:26:41;98805.06;;;18.23
78905;BMP280;68291;49.602;8.722;2023-03-23T00:29:28;98798.22;;;18.22
78905;BMP280;68291;49.602;8.722;2023-03-23T00:32:21;98799.31;;;18.19
78905;BMP280;68291;49.602;8.722;2023-03-23T00:35:10;98790.09;;;18.16
78905;BMP280;68291;49.602;8.722;2023-03-23T00:37:52;98780.63;;;18.15
78905;BMP280;68291;49.602;8.722;2023-03-23T00:40:38;98778.88;;;18.15
78905;BMP280;68291;49.602;8.722;2023-03-23T00:43:20;98772.81;;;18.15
78905;BMP280;68291;49.602;8.722;2023-03-23T00:45:54;98787.22;;;18.18
78905;BMP280;68291;49.602;8.722;2023-03-23T00:48:29;98784.63;;;18.18
78905;BMP280;68291;49.602;8.722;2023-03-23T00:51:03;98771.75;;;18.17
78905;BMP280;68291;49.602;8.722;2023-03-23T00:53:39;98770.09;;;18.16
78905;BMP280;68291;49.602;8.722;2023-03-23T00:56:19;98782.28;;;18.16
78905;BMP280;68291;49.602;8.722;2023-03-23T00:59:00;98779.69;;;18.16
78905;BMP280;68291;49.602;8.722;2023-03-23T01:02:12;98778.31;;;18.12
78905;BMP280;68291;49.602;8.722;2023-03-23T01:04:46;98781.59;;;18.14
78905;BMP280;68291;49.602;8.722;2023-03-23T01:07:23;98792.03;;;18.14
78905;BMP280;68291;49.602;8.722;2023-03-23T01:10:14;98775.00;;;18.10
78905;BMP280;68291;49.602;8.722;2023-03-23T01:13:00;98769.78;;;18.10
78905;BMP280;68291;49.602;8.722;2023-03-23T01:15:39;98766.38;;;18.09
78905;BMP280;68291;49.602;8.722;2023-03-23T01:18:28;98765.56;;;18.09
78905;BMP280;68291;49.602;8.722;2023-03-23T01:21:06;98769.94;;;18.08
78905;BMP280;68291;49.602;8.722;2023-03-23T01:23:48;98773.38;;;18.09
78905;BMP280;68291;49.602;8.722;2023-03-23T01:26:27;98770.06;;;18.07
78905;BMP280;68291;49.602;8.722;2023-03-23T01:29:04;98758.09;;;18.04
78905;BMP280;68291;49.602;8.722;2023-03-23T01:31:35;98762.47;;;18.04
78905;BMP280;68291;49.602;8.722;2023-03-23T01:34:18;98756.31;;;18.05
78905;BMP280;68291;49.602;8.722;2023-03-23T01:36:52;98765.06;;;18.04
78905;BMP280;68291;49.602;8.722;2023-03-23T01:39:43;98748.63;;;18.03
78905;BMP280;68291;49.602;8.722;2023-03-23T01:42:15;98742.72;;;18.01
78905;BMP280;68291;49.602;8.722;2023-03-23T01:45:29;98733.41;;;17.99
78905;BMP280;68291;49.602;8.722;2023-03-23T01:48:24;98741.91;;;18.01
78905;BMP280;68291;49.602;8.722;2023-03-23T01:51:19;98740.13;;;18.01
78905;BMP280;68291;49.602;8.722;2023-03-23T01:54:13;98745.06;;;18.04
78905;BMP280;68291;49.602;8.722;2023-03-23T01:56:59;98739.28;;;18.01
78905;BMP280;68291;49.602;8.722;2023-03-23T01:59:38;98736.81;;;17.99
78905;BMP280;68291;49.602;8.722;2023-03-23T02:02:27;98726.97;;;18.03
78905;BMP280;68291;49.602;8.722;2023-03-23T02:05:14;98717.53;;;18.02
78905;BMP280;68291;49.602;8.722;2023-03-23T02:08:15;98712.75;;;18.07
78905;BMP280;68291;49.602;8.722;2023-03-23T02:10:51;98717.97;;;18.07
78905;BMP280;68291;49.602;8.722;2023-03-23T02:13:37;98713.69;;;18.06
78905;BMP280;68291;49.602;8.722;2023-03-23T02:16:27;98717.97;;;18.07
78905;BMP280;68291;49.602;8.722;2023-03-23T02:19:36;98719.03;;;18.04
78905;BMP280;68291;49.602;8.722;2023-03-23T02:22:54;98731.34;;;18.02
78905;BMP280;68291;49.602;8.722;2023-03-23T02:26:12;98720.38;;;17.99
78905;BMP280;68291;49.602;8.722;2023-03-23T02:29:36;98729.97;;;17.98
78905;BMP280;68291;49.602;8.722;2023-03-23T02:35:44;98713.25;;;18.01
78905;BMP280;68291;49.602;8.722;2023-03-23T02:38:43;98717.53;;;18.02
78905;BMP280;68291;49.602;8.722;2023-03-23T02:41:27;98714.63;;;18.05
78905;BMP280;68291;49.602;8.722;2023-03-23T02:44:05;98705.63;;;18.09
78905;BMP280;68291;49.602;8.722;2023-03-23T02:46:49;98687.53;;;18.07
78905;BMP280;68291;49.602;8.722;2023-03-23T02:49:32;98690.94;;;18.08
78905;BMP280;68291;49.602;8.722;2023-03-23T02:52:35;98684.78;;;18.09
78905;BMP280;68291;49.602;8.722;2023-03-23T02:55:27;98672.94;;;18.05
78905;BMP280;68291;49.602;8.722;2023-03-23T02:58:16;98681.50;;;18.07
78905;BMP280;68291;49.602;8.722;2023-03-23T03:01:57;98678.69;;;17.99
78905;BMP280;68291;49.602;8.722;2023-03-23T03:04:28;98681.41;;;17.97
78905;BMP280;68291;49.602;8.722;2023-03-23T03:07:24;98673.75;;;17.96
78905;BMP280;68291;49.602;8.722;2023-03-23T03:10:11;98680.75;;;17.95
78905;BMP280;68291;49.602;8.722;2023-03-23T03:12:56;98681.56;;;17.96
78905;BMP280;68291;49.602;8.722;2023-03-23T03:15:54;98684.19;;;17.96
78905;BMP280;68291;49.602;8.722;2023-03-23T03:19:02;98669.91;;;17.90
78905;BMP280;68291;49.602;8.722;2023-03-23T03:21:39;98679.50;;;17.90
78905;BMP280;68291;49.602;8.722;2023-03-23T03:24:20;98685.28;;;17.93
78905;BMP280;68291;49.602;8.722;2023-03-23T03:27:18;98674.88;;;17.93
78905;BMP280;68291;49.602;8.722;2023-03-23T03:30:13;98683.63;;;17.92
78905;BMP280;68291;49.602;8.722;2023-03-23T03:32:52;98681.69;;;17.94
78905;BMP280;68291;49.602;8.722;2023-03-23T03:35:43;98673.88;;;17.94
78905;BMP280;68291;49.602;8.722;2023-03-23T03:38:12;98667.69;;;17.86
78905;BMP280;68291;49.602;8.722;2023-03-23T03:40:44;98666.59;;;17.88
78905;BMP280;68291;49.602;8.722;2023-03-23T03:43:31;98673.88;;;17.94
78905;BMP280;68291;49.602;8.722;2023-03-23T03:46:10;98676.63;;;17.93
78905;BMP280;68291;49.602;8.722;2023-03-23T03:48:40;98674.28;;;17.90
78905;BMP280;68291;49.602;8.722;2023-03-23T03:51:27;98676.91;;;17.90
78905;BMP280;68291;49.602;8.722;2023-03-23T03:54:06;98674.28;;;17.90
78905;BMP280;68291;49.602;8.722;2023-03-23T03:57:02;98672.66;;;17.89
78905;BMP280;68291;49.602;8.722;2023-03-23T03:59:53;98670.06;;;17.89
78905;BMP280;68291;49.602;8.722;2023-03-23T04:02:45;98669.63;;;17.84
78905;BMP280;68291;49.602;8.722;2023-03-23T04:05:26;98670.72;;;17.82
78905;BMP280;68291;49.602;8.722;2023-03-23T04:08:31;98667.69;;;17.77
78905;BMP280;68291;49.602;8.722;2023-03-23T04:11:02;98669.47;;;17.76
78905;BMP280;68291;49.602;8.722;2023-03-23T04:13:49;98661.09;;;17.73
78905;BMP280;68291;49.602;8.722;2023-03-23T04:16:48;98667.00;;;17.75
78905;BMP280;68291;49.602;8.722;2023-03-23T04:19:37;98663.59;;;17.74
78905;BMP280;68291;49.602;8.722;2023-03-23T04:22:21;98666.72;;;17.68
78905;BMP280;68291;49.602;8.722;2023-03-23T04:25:18;98666.00;;;17.57
78905;BMP280;68291;49.602;8.722;2023-03-23T04:27:51;98675.53;;;17.47
78905;BMP280;68291;49.602;8.722;2023-03-23T04:30:41;98676.22;;;17.40
78905;BMP280;68291;49.602;8.722;2023-03-23T04:33:31;98683.16;;;17.30
78905;BMP280;68291;49.602;8.722;2023-03-23T04:36:05;98675.00;;;17.14
78905;BMP280;68291;49.602;8.722;2023-03-23T04:38:54;98681.84;;;16.95
78905;BMP280;68291;49.602;8.722;2023-03-23T04:41:34;98692.06;;;16.87
78905;BMP280;68291;49.602;8.722;2023-03-23T04:44:15;98704.03;;;16.78
78905;BMP280;68291;49.602;8.722;2023-03-23T04:47:08;98706.31;;;16.72
78905;BMP280;68291;49.602;8.722;2023-03-23T04:49:58;98698.63;;;16.71
78905;BMP280;68291;49.602;8.722;2023-03-23T04:52:40;98705.63;;;16.70
78905;BMP280;68291;49.602;8.722;2023-03-23T04:55:15;98695.50;;;16.67
78905;BMP280;68291;49.602;8.722;2023-03-23T04:58:03;98697.81;;;16.70
78905;BMP280;68291;49.602;8.722;2023-03-23T05:00:57;98707.13;;;16.73
78905;BMP280;68291;49.602;8.722;2023-03-23T05:03:38;98710.59;;;16.73
78905;BMP280;68291;49.602;8.722;2023-03-23T05:06:18;98711.19;;;16.66
78905;BMP280;68291;49.602;8.722;2023-03-23T05:08:59;98717.75;;;16.60
78905;BMP280;68291;49.602;8.722;2023-03-23T05:11:40;98719.06;;;16.55
78905;BMP280;68291;49.602;8.722;2023-03-23T05:14:41;98721.75;;;16.53
78905;BMP280;68291;49.602;8.722;2023-03-23T05:17:32;98729.00;;;16.50
78905;BMP280;68291;49.602;8.722;2023-03-23T05:20:25;98728.56;;;16.45
78905;BMP280;68291;49.602;8.722;2023-03-23T05:23:17;98734.56;;;16.45
78905;BMP280;68291;49.602;8.722;2023-03-23T05:25:59;98733.63;;;16.46
78905;BMP280;68291;49.602;8.722;2023-03-23T05:28:33;98737.34;;;16.53
78905;BMP280;68291;49.602;8.722;2023-03-23T05:31:20;98737.13;;;16.56
78905;BMP280;68291;49.602;8.722;2023-03-23T05:34:10;98724.56;;;16.61
78905;BMP280;68291;49.602;8.722;2023-03-23T05:36:58;98733.66;;;16.67
78905;BMP280;68291;49.602;8.722;2023-03-23T05:39:49;98732.31;;;16.72
78905;BMP280;68291;49.602;8.722;2023-03-23T05:42:31;98733.41;;;16.70
78905;BMP280;68291;49.602;8.722;2023-03-23T05:45:19;98735.13;;;16.80
78905;BMP280;68291;49.602;8.722;2023-03-23T05:48:19;98734.84;;;16.83
78905;BMP280;68291;49.602;8.722;2023-03-23T05:51:05;98737.06;;;16.87
78905;BMP280;68291;49.602;8.722;2023-03-23T05:53:41;98739.44;;;16.90
78905;BMP280;68291;49.602;8.722;2023-03-23T05:56:16;98748.63;;;16.94
78905;BMP280;68291;49.602;8.722;2023-03-23T05:59:06;98734.41;;;16.98
78905;BMP280;68291;49.602;8.722;2023-03-23T06:01:51;98744.44;;;17.03
78905;BMP280;68291;49.602;8.722;2023-03-23T06:04:49;98748.44;;;17.07
78905;BMP280;68291;49.602;8.722;2023-03-23T06:07:39;98744.03;;;17.07
78905;BMP280;68291;49.602;8.722;2023-03-23T06:10:24;98753.75;;;17.16
78905;BMP280;68291;49.602;8.722;2023-03-23T06:13:09;98754.28;;;17.19
78905;BMP280;68291;49.602;8.722;2023-03-23T06:16:05;98754.56;;;17.16
78905;BMP280;68291;49.602;8.722;2023-03-23T06:18:55;98751.00;;;17.17
78905;BMP280;68291;49.602;8.722;2023-03-23T06:21:55;98750.88;;;17.19
78905;BMP280;68291;49.602;8.722;2023-03-23T06:24:45;98762.25;;;17.18
78905;BMP280;68291;49.602;8.722;2023-03-23T06:27:33;98749.91;;;17.20
78905;BMP280;68291;49.602;8.722;2023-03-23T06:30:13;98754.88;;;17.23
78905;BMP280;68291;49.602;8.722;2023-03-23T06:32:52;98764.06;;;17.27
78905;BMP280;68291;49.602;8.722;2023-03-23T06:35:43;98765.84;;;17.26
78905;BMP280;68291;49.602;8.722;2023-03-23T06:39:05;98766.91;;;17.24
78905;BMP280;68291;49.602;8.722;2023-03-23T06:41:57;98752.66;;;17.18
78905;BMP280;68291;49.602;8.722;2023-03-23T06:44:46;98762.09;;;17.19
78905;BMP280;68291;49.602;8.722;2023-03-23T06:47:33;98760.31;;;17.20
78905;BMP280;68291;49.602;8.722;2023-03-23T06:50:14;98760.06;;;17.23
78905;BMP280;68291;49.602;8.722;2023-03-23T06:52:51;98767.63;;;17.26
78905;BMP280;68291;49.602;8.722;2023-03-23T06:55:30;98767.38;;;17.29
78905;BMP280;68291;49.602;8.722;2023-03-23T06:58:05;98783.66;;;17.31
78905;BMP280;68291;49.602;8.722;2023-03-23T07:00:36;98786.25;;;17.31
78905;BMP280;68291;49.602;8.722;2023-03-23T07:03:32;98782.03;;;17.30
78905;BMP280;68291;49.602;8.722;2023-03-23T07:06:17;98782.84;;;17.30
78905;BMP280;68291;49.602;8.722;2023-03-23T07:08:59;98797.44;;;17.22
78905;BMP280;68291;49.602;8.722;2023-03-23T07:11:42;98796.66;;;17.11
78905;BMP280;68291;49.602;8.722;2023-03-23T07:14:29;98815.72;;;17.00
78905;BMP280;68291;49.602;8.722;2023-03-23T07:17:09;98817.69;;;16.87
78905;BMP280;68291;49.602;8.722;2023-03-23T07:19:59;98812.78;;;16.74
78905;BMP280;68291;49.602;8.722;2023-03-23T07:22:49;98831.91;;;16.73
78905;BMP280;68291;49.602;8.722;2023-03-23T07:25:43;98832.47;;;16.56
78905;BMP280;68291;49.602;8.722;2023-03-23T07:28:46;98830.38;;;16.39
78905;BMP280;68291;49.602;8.722;2023-03-23T07:31:43;98830.25;;;16.30
78905;BMP280;68291;49.602;8.722;2023-03-23T07:34:16;98819.78;;;16.20
78905;BMP280;68291;49.602;8.722;2023-03-23T07:37:14;98828.38;;;16.10
78905;BMP280;68291;49.602;8.722;2023-03-23T07:40:01;98831.44;;;16.04
78905;BMP280;68291;49.602;8.722;2023-03-23T07:42:39;98827.47;;;16.00
78905;BMP280;68291;49.602;8.722;2023-03-23T07:45:14;98837.94;;;15.99
78905;BMP280;68291;49.602;8.722;2023-03-23T07:47:43;98844.22;;;15.96
78905;BMP280;68291;49.602;8.722;2023-03-23T07:50:12;98849.28;;;15.98
78905;BMP280;68291;49.602;8.722;2023-03-23T07:52:58;98853.28;;;15.91
78905;BMP280;68291;49.602;8.722;2023-03-23T07:55:34;98861.91;;;15.91
78905;BMP280;68291;49.602;8.722;2023-03-23T07:58:29;98867.13;;;15.91
78905;BMP280;68291;49.602;8.722;2023-03-23T08:01:18;98879.75;;;15.96
78905;BMP280;68291;49.602;8.722;2023-03-23T08:04:15;98877.59;;;16.01
78905;BMP280;68291;49.602;8.722;2023-03-23T08:07:30;98872.16;;;16.04
78905;BMP280;68291;49.602;8.722;2023-03-23T08:10:14;98872.97;;;16.04
78905;BMP280;68291;49.602;8.722;2023-03-23T08:13:04;98868.50;;;16.06
78905;BMP280;68291;49.602;8.722;2023-03-23T08:16:17;98876.78;;;16.11
78905;BMP280;68291;49.602;8.722;2023-03-23T08:19:06;98881.41;;;16.18
78905;BMP280;68291;49.602;8.722;2023-03-23T08:22:16;98877.28;;;16.27
78905;BMP280;68291;49.602;8.722;2023-03-23T08:25:19;98878.59;;;16.32
78905;BMP280;68291;49.602;8.722;2023-03-23T08:28:13;98886.00;;;16.37
78905;BMP280;68291;49.602;8.722;2023-03-23T08:31:18;98882.72;;;16.35
78905;BMP280;68291;49.602;8.722;2023-03-23T08:34:17;98882.94;;;16.32
78905;BMP280;68291;49.602;8.722;2023-03-23T08:37:13;98901.72;;;16.35
78905;BMP280;68291;49.602;8.722;2023-03-23T08:40:01;98888.72;;;16.35
78905;BMP280;68291;49.602;8.722;2023-03-23T08:43:06;98904.31;;;16.35
78905;BMP280;68291;49.602;8.722;2023-03-23T08:46:10;98905.03;;;16.37
78905;BMP280;68291;49.602;8.722;2023-03-23T08:49:16;98911.50;;;16.43
78905;BMP280;68291;49.602;8.722;2023-03-23T08:52:21;98903.34;;;16.47
78905;BMP280;68291;49.602;8.722;2023-03-23T08:55:14;98906.66;;;16.49
78905;BMP280;68291;49.602;8.722;2023-03-23T08:58:10;98908.66;;;16.56
78905;BMP280;68291;49.602;8.722;2023-03-23T09:01:10;98905.69;;;16.61
78905;BMP280;68291;49.602;8.722;2023-03-23T09:03:50;98919.50;;;16.61
78905;BMP280;68291;49.602;8.722;2023-03-23T09:07:06;98913.16;;;16.44
78905;BMP280;68291;49.602;8.722;2023-03-23T09:09:38;98917.06;;;16.38
78905;BMP280;68291;49.602;8.722;2023-03-23T09:12:27;98925.81;;;16.26
78905;BMP280;68291;49.602;8.722;2023-03-23T09:15:04;98936.06;;;16.17
78905;BMP280;68291;49.602;8.722;2023-03-23T09:17:45;98931.44;;;16.09
78905;BMP280;68291;49.602;8.722;2023-03-23T09:20:32;98927.19;;;16.09
78905;BMP280;68291;49.602;8.722;2023-03-23T09:23:11;98932.16;;;16.11
78905;BMP280;68291;49.602;8.722;2023-03-23T09:25:51;98940.22;;;16.19
78905;BMP280;68291;49.602;8.722;2023-03-23T09:28:42;98940.69;;;16.24
78905;BMP280;68291;49.602;8.722;2023-03-23T09:31:31;98953.44;;;16.27
78905;BMP280;68291;49.602;8.722;2023-03-23T09:34:27;98950.00;;;16.38
78905;BMP280;68291;49.602;8.722;2023-03-23T09:37:08;98950.63;;;16.41
78905;BMP280;68291;49.602;8.722;2023-03-23T09:39:41;98952.03;;;16.45
78905;BMP280;68291;49.602;8.722;2023-03-23T09:42:45;98947.88;;;16.53
78905;BMP280;68291;49.602;8.722;2023-03-23T09:45:55;98946.22;;;16.63
78905;BMP280;68291;49.602;8.722;2023-03-23T09:48:49;98949.88;;;16.72
78905;BMP280;68291;49.602;8.722;2023-03-23T09:51:53;98955.50;;;16.87
78905;BMP280;68291;49.602;8.722;2023-03-23T09:54:41;98946.03;;;16.97
78905;BMP280;68291;49.602;8.722;2023-03-23T09:57:24;98952.13;;;17.07
78905;BMP280;68291;49.602;8.722;2023-03-23T10:00:03;98954.41;;;17.12
78905;BMP280;68291;49.602;8.722;2023-03-23T10:02:48;98946.44;;;17.13
78905;BMP280;68291;49.602;8.722;2023-03-23T10:05:31;98938.19;;;17.19
78905;BMP280;68291;49.602;8.722;2023-03-23T10:08:43;98937.13;;;17.21
78905;BMP280;68291;49.602;8.722;2023-03-23T10:11:37;98946.97;;;17.18
78905;BMP280;68291;49.602;8.722;2023-03-23T10:14:36;98954.75;;;17.07
78905;BMP280;68291;49.602;8.722;2023-03-23T10:17:17;98946.72;;;17.10
78905;BMP280;68291;49.602;8.722;2023-03-23T10:20:22;98944.38;;;17.18
78905;BMP280;68291;49.602;8.722;2023-03-23T10:23:32;98938.41;;;17.27
78905;BMP280;68291;49.602;8.722;2023-03-23T10:26:27;98943.63;;;17.27
78905;BMP280;68291;49.602;8.722;2023-03-23T10:29:16;98931.91;;;17.21
78905;BMP280;68291;49.602;8.722;2023-03-23T10:31:58;98920.63;;;17.32
78905;BMP280;68291;49.602;8.722;2023-03-23T10:34:41;98919.13;;;17.49
78905;BMP280;68291;49.602;8.722;2023-03-23T10:37:25;98922.56;;;17.70
78905;BMP280;68291;49.602;8.722;2023-03-23T10:40:00;98920.16;;;17.78
78905;BMP280;68291;49.602;8.722;2023-03-23T10:43:07;98925.94;;;17.82
78905;BMP280;68291;49.602;8.722;2023-03-23T10:46:03;98930.31;;;17.81
78905;BMP280;68291;49.602;8.722;2023-03-23T10:48:45;98929.22;;;17.83
78905;BMP280;68291;49.602;8.722;2023-03-23T10:51:34;98932.41;;;17.87
78905;BMP280;68291;49.602;8.722;2023-03-23T10:54:32;98935.06;;;17.96
78905;BMP280;68291;49.602;8.722;2023-03-23T10:57:24;98942.50;;;18.01
78905;BMP280;68291;49.602;8.722;2023-03-23T11:03:43;98940.84;;;18.00
78905;BMP280;68291;49.602;8.722;2023-03-23T11:06:35;98944.16;;;18.02
78905;BMP280;68291;49.602;8.722;2023-03-23T11:09:21;98939.47;;;17.96
78905;BMP280;68291;49.602;8.722;2023-03-23T11:12:00;98926.66;;;17.93
78905;BMP280;68291;49.602;8.722;2023-03-23T11:14:42;98930.94;;;17.94
78905;BMP280;68291;49.602;8.722;2023-03-23T11:17:25;98928.06;;;17.97
78905;BMP280;68291;49.602;8.722;2023-03-23T11:20:23;98935.75;;;17.98
78905;BMP280;68291;49.602;8.722;2023-03-23T11:23:09;98928.72;;;17.89
78905;BMP280;68291;49.602;8.722;2023-03-23T11:26:08;98941.59;;;17.91
78905;BMP280;68291;49.602;8.722;2023-03-23T11:29:03;98951.84;;;17.83
78905;BMP280;68291;49.602;8.722;2023-03-23T11:31:42;98965.88;;;17.71
78905;BMP280;68291;49.602;8.722;2023-03-23T11:34:40;98946.25;;;17.47
78905;BMP280;68291;49.602;8.722;2023-03-23T11:37:28;98950.47;;;17.28
78905;BMP280;68291;49.602;8.722;2023-03-23T11:40:20;98941.25;;;17.13
78905;BMP280;68291;49.602;8.722;2023-03-23T11:43:01;98949.44;;;17.09
78905;BMP280;68291;49.602;8.722;2023-03-23T11:45:55;98953.69;;;17.10
78905;BMP280;68291;49.602;8.722;2023-03-23T11:48:51;98959.94;;;17.07
78905;BMP280;68291;49.602;8.722;2023-03-23T11:51:34;98960.31;;;17.03
78905;BMP280;68291;49.602;8.722;2023-03-23T11:54:30;98959.28;;;17.05
78905;BMP280;68291;49.602;8.722;2023-03-23T11:57:09;98946.59;;;17.12
78905;BMP280;68291;49.602;8.722;2023-03-23T11:59:40;98948.84;;;17.16
78905;BMP280;68291;49.602;8.722;2023-03-23T12:06:05;98931.91;;;17.21
78905;BMP280;68291;49.602;8.722;2023-03-23T12:09:06;98931.63;;;17.35
78905;BMP280;68291;49.602;8.722;2023-03-23T12:12:01;98935.81;;;17.47
78905;BMP280;68291;49.602;8.722;2023-03-23T12:14:59;98927.25;;;17.56
78905;BMP280;68291;49.602;8.722;2023-03-23T12:17:56;98939.47;;;17.55
78905;BMP280;68291;49.602;8.722;2023-03-23T12:20:49;98929.53;;;17.49
78905;BMP280;68291;49.602;8.722;2023-03-23T12:23:33;98930.94;;;17.53
78905;BMP280;68291;49.602;8.722;2023-03-23T12:26:25;98939.91;;;17.60
78905;BMP280;68291;49.602;8.722;2023-03-23T12:29:48;98933.75;;;17.61
78905;BMP280;68291;49.602;8.722;2023-03-23T12:32:53;98926.06;;;17.60
78905;BMP280;68291;49.602;8.722;2023-03-23T12:35:49;98921.13;;;17.57
78905;BMP280;68291;49.602;8.722;2023-03-23T12:38:51;98906.19;;;17.59
78905;BMP280;68291;49.602;8.722;2023-03-23T12:41:34;98895.41;;;17.63
78905;BMP280;68291;49.602;8.722;2023-03-23T12:44:22;98890.50;;;17.70
78905;BMP280;68291;49.602;8.722;2023-03-23T12:47:37;98892.97;;;17.71
78905;BMP280;68291;49.602;8.722;2023-03-23T12:50:22;98878.75;;;17.75
78905;BMP280;68291;49.602;8.722;2023-03-23T12:53:01;98871.34;;;17.80
78905;BMP280;68291;49.602;8.722;2023-03-23T12:56:03;98868.66;;;17.91
78905;BMP280;68291;49.602;8.722;2023-03-23T12:59:02;98871.47;;;17.99
78905;BMP280;68291;49.602;8.722;2023-03-23T13:01:56;98850.72;;;18.08
78905;BMP280;68291;49.602;8.722;2023-03-23T13:04:59;98855.78;;;18.10
78905;BMP280;68291;49.602;8.722;2023-03-23T13:07:53;98853.72;;;18.13
78905;BMP280;68291;49.602;8.722;2023-03-23T13:10:32;98854.03;;;18.19
78905;BMP280;68291;49.602;8.722;2023-03-23T13:13:13;98848.25;;;18.16
78905;BMP280;68291;49.602;8.722;2023-03-23T13:16:04;98852.66;;;18.16
78905;BMP280;68291;49.602;8.722;2023-03-23T13:18:49;98842.41;;;18.23
78905;BMP280;68291;49.602;8.722;2023-03-23T13:21:50;98838.69;;;18.26
78905;BMP280;68291;49.602;8.722;2023-03-23T13:24:35;98846.34;;;18.27
78905;BMP280;68291;49.602;8.722;2023-03-23T13:27:09;98855.97;;;18.27
78905;BMP280;68291;49.602;8.722;2023-03-23T13:29:51;98860.34;;;18.26
78905;BMP280;68291;49.602;8.722;2023-03-23T13:32:28;98852.81;;;18.23
78905;BMP280;68291;49.602;8.722;2023-03-23T13:35:17;98854.84;;;18.20
78905;BMP280;68291;49.602;8.722;2023-03-23T13:38:17;98859.88;;;18.12
78905;BMP280;68291;49.602;8.722;2023-03-23T13:40:53;98861.13;;;18.08
78905;BMP280;68291;49.602;8.722;2023-03-23T13:43:34;98852.72;;;18.05
78905;BMP280;68291;49.602;8.722;2023-03-23T13:46:30;98874.75;;;18.01
78905;BMP280;68291;49.602;8.722;2023-03-23T13:49:19;98865.81;;;17.94
78905;BMP280;68291;49.602;8.722;2023-03-23T13:52:15;98864.44;;;17.90
78905;BMP280;68291;49.602;8.722;2023-03-23T13:55:30;98859.09;;;17.91
78905;BMP280;68291;49.602;8.722;2023-03-23T13:58:24;98861.31;;;17.96
78905;BMP280;68291;49.602;8.722;2023-03-23T14:01:16;98840.91;;;18.01
78905;BMP280;68291;49.602;8.722;2023-03-23T14:03:55;98834.75;;;18.02
78905;BMP280;68291;49.602;8.722;2023-03-23T14:06:34;98841.88;;;18.00
78905;BMP280;68291;49.602;8.722;2023-03-23T14:09:18;98841.59;;;18.03
78905;BMP280;68291;49.602;8.722;2023-03-23T14:12:00;98844.88;;;18.05
78905;BMP280;68291;49.602;8.722;2023-03-23T14:14:46;98845.63;;;18.07
78905;BMP280;68291;49.602;8.722;2023-03-23T14:17:22;98843.84;;;18.07
78905;BMP280;68291;49.602;8.722;2023-03-23T14:19:58;98850.09;;;18.05
78905;BMP280;68291;49.602;8.722;2023-03-23T14:22:39;98837.59;;;17.99
78905;BMP280;68291;49.602;8.722;2023-03-23T14:25:15;98844.88;;;17.95
78905;BMP280;68291;49.602;8.722;2023-03-23T14:27:47;98847.06;;;18.00
78905;BMP280;68291;49.602;8.722;2023-03-23T14:30:45;98844.47;;;18.00
78905;BMP280;68291;49.602;8.722;2023-03-23T14:33:32;98845.97;;;18.02
78905;BMP280;68291;49.602;8.722;2023-03-23T14:36:06;98835.81;;;17.99
78905;BMP280;68291;49.602;8.722;2023-03-23T14:38:45;98850.09;;;18.05
78905;BMP280;68291;49.602;8.722;2023-03-23T14:41:34;98845.16;;;18.02
78905;BMP280;68291;49.602;8.722;2023-03-23T14:44:23;98844.59;;;17.98
78905;BMP280;68291;49.602;8.722;2023-03-23T14:47:04;98851.59;;;17.98
78905;BMP280;68291;49.602;8.722;2023-03-23T14:49:44;98847.31;;;17.97
78905;BMP280;68291;49.602;8.722;2023-03-23T14:52:38;98849.22;;;17.95
78905;BMP280;68291;49.602;8.722;2023-03-23T14:55:23;98853.03;;;17.91
78905;BMP280;68291;49.602;8.722;2023-03-23T14:58:13;98838.38;;;17.90
78905;BMP280;68291;49.602;8.722;2023-03-23T15:00:54;98846.88;;;17.92
78905;BMP280;68291;49.602;8.722;2023-03-23T15:03:25;98838.00;;;17.94
78905;BMP280;68291;49.602;8.722;2023-03-23T15:06:05;98841.88;;;18.00
78905;BMP280;68291;49.602;8.722;2023-03-23T15:08:36;98843.22;;;18.04
78905;BMP280;68291;49.602;8.722;2023-03-23T15:11:20;98842.69;;;18.00
78905;BMP280;68291;49.602;8.722;2023-03-23T15:14:15;98859.09;;;17.91
78905;BMP280;68291;49.602;8.722;2023-03-23T15:17:04;98853.44;;;17.86
78905;BMP280;68291;49.602;8.722;2023-03-23T15:19:43;98843.41;;;17.82
78905;BMP280;68291;49.602;8.722;2023-03-23T15:22:31;98851.22;;;17.82
78905;BMP280;68291;49.602;8.722;2023-03-23T15:25:22;98849.00;;;17.78
78905;BMP280;68291;49.602;8.722;2023-03-23T15:28:18;98843.69;;;17.79
78905;BMP280;68291;49.602;8.722;2023-03-23T15:30:56;98833.53;;;17.76
78905;BMP280;68291;49.602;8.722;2023-03-23T15:33:46;98835.03;;;17.79
78905;BMP280;68291;49.602;8.722;2023-03-23T15:36:36;98851.22;;;17.82
78905;BMP280;68291;49.602;8.722;2023-03-23T15:39:10;98860.13;;;17.80
78905;BMP280;68291;49.602;8.722;2023-03-23T15:41:54;98864.78;;;17.76
78905;BMP280;68291;49.602;8.722;2023-03-23T15:44:30;98864.78;;;17.76
78905;BMP280;68291;49.602;8.722;2023-03-23T15:47:19;98859.81;;;17.73
78905;BMP280;68291;49.602;8.722;2023-03-23T15:50:13;98868.59;;;17.72
78905;BMP280;68291;49.602;8.722;2023-03-23T15:52:44;98863.38;;;17.72
78905;BMP280;68291;49.602;8.722;2023-03-23T15:55:38;98854.59;;;17.73
78905;BMP280;68291;49.602;8.722;2023-03-23T15:58:35;98855.19;;;17.77
78905;BMP280;68291;49.602;8.722;2023-03-23T16:01:18;98855.19;;;17.77
78905;BMP280;68291;49.602;8.722;2023-03-23T16:04:04;98846.78;;;17.73
78905;BMP280;68291;49.602;8.722;2023-03-23T16:06:43;98845.16;;;17.72
78905;BMP280;68291;49.602;8.722;2023-03-23T16:09:21;98838.56;;;17.68
78905;BMP280;68291;49.602;8.722;2023-03-23T16:12:04;98823.88;;;17.67
78905;BMP280;68291;49.602;8.722;2023-03-23T16:14:37;98840.09;;;17.80
78905;BMP280;68291;49.602;8.722;2023-03-23T16:17:28;98819.97;;;17.82
78905;BMP280;68291;49.602;8.722;2023-03-23T16:20:13;98829.97;;;17.77